sensor_id;sensor_type;location;lat;lon;timestamp;P1;durP1;ratioP1;P2;durP2;ratioP2
28545;SDS011;15749;49.606;8.738;2023-02-25T00:02:06;2.87;;;2.20;;
28545;SDS011;15749;49.606;8.738;2023-02-25T00:04:38;2.53;;;2.30;;
28545;SDS011;15749;49.606;8.738;2023-02-25T00:07:09;3.10;;;2.80;;
28545;SDS011;15749;49.606;8.738;2023-02-25T00:09:38;2.40;;;2.20;;
28545;SDS011;15749;49.606;8.738;2023-02-25T00:12:09;2.30;;;2.10;;
28545;SDS011;15749;49.606;8.738;2023-02-25T00:14:38;3.40;;;2.37;;
28545;SDS011;15749;49.606;8.738;2023-02-25T00:17:07;3.63;;;2.70;;
28545;SDS011;15749;49.606;8.738;2023-02-25T00:19:36;3.70;;;2.73;;
28545;SDS011;15749;49.606;8.738;2023-02-25T00:22:06;2.43;;;2.23;;
28545;SDS011;15749;49.606;8.738;2023-02-25T00:24:36;4.77;;;2.47;;
28545;SDS011;15749;49.606;8.738;2023-02-25T00:27:05;4.43;;;2.30;;
28545;SDS011;15749;49.606;8.738;2023-02-25T00:29:35;4.20;;;2.67;;
28545;SDS011;15749;49.606;8.738;2023-02-25T00:32:04;2.53;;;2.30;;
28545;SDS011;15749;49.606;8.738;2023-02-25T00:34:35;2.83;;;2.10;;
28545;SDS011;15749;49.606;8.738;2023-02-25T00:37:04;1.90;;;1.77;;
28545;SDS011;15749;49.606;8.738;2023-02-25T00:39:34;2.07;;;1.77;;
28545;SDS011;15749;49.606;8.738;2023-02-25T00:42:10;2.53;;;1.80;;
28545;SDS011;15749;49.606;8.738;2023-02-25T00:44:42;2.27;;;2.07;;
28545;SDS011;15749;49.606;8.738;2023-02-25T00:47:12;1.97;;;1.60;;
28545;SDS011;15749;49.606;8.738;2023-02-25T00:49:44;2.37;;;1.60;;
28545;SDS011;15749;49.606;8.738;2023-02-25T00:52:14;2.30;;;1.63;;
28545;SDS011;15749;49.606;8.738;2023-02-25T00:54:47;2.60;;;1.60;;
28545;SDS011;15749;49.606;8.738;2023-02-25T00:57:16;2.20;;;1.70;;
28545;SDS011;15749;49.606;8.738;2023-02-25T00:59:46;2.20;;;1.90;;
28545;SDS011;15749;49.606;8.738;2023-02-25T01:02:17;1.90;;;1.60;;
28545;SDS011;15749;49.606;8.738;2023-02-25T01:04:46;4.90;;;1.90;;
28545;SDS011;15749;49.606;8.738;2023-02-25T01:07:16;2.07;;;1.80;;
28545;SDS011;15749;49.606;8.738;2023-02-25T01:09:48;3.47;;;1.70;;
28545;SDS011;15749;49.606;8.738;2023-02-25T01:12:17;3.37;;;1.83;;
28545;SDS011;15749;49.606;8.738;2023-02-25T01:14:47;2.37;;;2.00;;
28545;SDS011;15749;49.606;8.738;2023-02-25T01:17:16;2.57;;;2.13;;
28545;SDS011;15749;49.606;8.738;2023-02-25T01:19:47;2.00;;;1.77;;
28545;SDS011;15749;49.606;8.738;2023-02-25T01:22:17;2.90;;;2.20;;
28545;SDS011;15749;49.606;8.738;2023-02-25T01:24:48;3.13;;;2.00;;
28545;SDS011;15749;49.606;8.738;2023-02-25T01:27:17;3.03;;;1.77;;
28545;SDS011;15749;49.606;8.738;2023-02-25T01:29:47;4.00;;;1.60;;
28545;SDS011;15749;49.606;8.738;2023-02-25T01:32:17;2.43;;;1.87;;
28545;SDS011;15749;49.606;8.738;2023-02-25T01:34:47;1.93;;;1.73;;
28545;SDS011;15749;49.606;8.738;2023-02-25T01:37:16;2.03;;;1.60;;
28545;SDS011;15749;49.606;8.738;2023-02-25T01:39:47;2.53;;;1.80;;
28545;SDS011;15749;49.606;8.738;2023-02-25T01:42:17;1.73;;;1.30;;
28545;SDS011;15749;49.606;8.738;2023-02-25T01:48:01;1.37;;;1.20;;
28545;SDS011;15749;49.606;8.738;2023-02-25T01:50:42;2.57;;;1.90;;
28545;SDS011;15749;49.606;8.738;2023-02-25T01:53:17;2.70;;;1.70;;
28545;SDS011;15749;49.606;8.738;2023-02-25T01:55:53;2.30;;;1.70;;
28545;SDS011;15749;49.606;8.738;2023-02-25T01:58:25;3.20;;;1.70;;
28545;SDS011;15749;49.606;8.738;2023-02-25T02:00:55;2.70;;;1.80;;
28545;SDS011;15749;49.606;8.738;2023-02-25T02:03:25;2.40;;;2.10;;
28545;SDS011;15749;49.606;8.738;2023-02-25T02:06:00;2.60;;;1.70;;
28545;SDS011;15749;49.606;8.738;2023-02-25T02:08:35;2.63;;;1.93;;
28545;SDS011;15749;49.606;8.738;2023-02-25T02:11:07;2.53;;;2.00;;
28545;SDS011;15749;49.606;8.738;2023-02-25T02:13:38;2.97;;;2.17;;
28545;SDS011;15749;49.606;8.738;2023-02-25T02:16:15;3.50;;;2.23;;
28545;SDS011;15749;49.606;8.738;2023-02-25T02:19:17;3.33;;;2.20;;
28545;SDS011;15749;49.606;8.738;2023-02-25T02:22:01;2.60;;;2.10;;
28545;SDS011;15749;49.606;8.738;2023-02-25T02:25:02;3.23;;;2.03;;
28545;SDS011;15749;49.606;8.738;2023-02-25T02:28:02;3.70;;;2.00;;
28545;SDS011;15749;49.606;8.738;2023-02-25T02:31:25;2.10;;;1.50;;
28545;SDS011;15749;49.606;8.738;2023-02-25T02:34:19;2.73;;;1.93;;
28545;SDS011;15749;49.606;8.738;2023-02-25T02:37:05;2.07;;;1.90;;
28545;SDS011;15749;49.606;8.738;2023-02-25T02:39:51;2.87;;;1.90;;
28545;SDS011;15749;49.606;8.738;2023-02-25T02:42:36;3.63;;;2.07;;
28545;SDS011;15749;49.606;8.738;2023-02-25T02:45:10;4.77;;;1.80;;
28545;SDS011;15749;49.606;8.738;2023-02-25T02:47:49;3.17;;;2.17;;
28545;SDS011;15749;49.606;8.738;2023-02-25T02:50:22;2.47;;;2.17;;
28545;SDS011;15749;49.606;8.738;2023-02-25T02:53:00;2.20;;;1.97;;
28545;SDS011;15749;49.606;8.738;2023-02-25T02:55:38;3.00;;;2.23;;
28545;SDS011;15749;49.606;8.738;2023-02-25T02:58:11;4.13;;;2.07;;
28545;SDS011;15749;49.606;8.738;2023-02-25T03:00:47;2.83;;;1.90;;
28545;SDS011;15749;49.606;8.738;2023-02-25T03:03:26;3.77;;;2.43;;
28545;SDS011;15749;49.606;8.738;2023-02-25T03:06:04;3.17;;;2.07;;
28545;SDS011;15749;49.606;8.738;2023-02-25T03:08:40;1.60;;;1.50;;
28545;SDS011;15749;49.606;8.738;2023-02-25T03:11:12;3.60;;;1.73;;
28545;SDS011;15749;49.606;8.738;2023-02-25T03:13:44;4.77;;;1.70;;
28545;SDS011;15749;49.606;8.738;2023-02-25T03:16:16;3.47;;;1.80;;
28545;SDS011;15749;49.606;8.738;2023-02-25T03:18:53;1.63;;;1.27;;
28545;SDS011;15749;49.606;8.738;2023-02-25T03:21:29;2.97;;;2.00;;
28545;SDS011;15749;49.606;8.738;2023-02-25T03:24:10;2.43;;;1.60;;
28545;SDS011;15749;49.606;8.738;2023-02-25T03:26:50;1.37;;;1.23;;
28545;SDS011;15749;49.606;8.738;2023-02-25T03:29:23;1.50;;;1.30;;
28545;SDS011;15749;49.606;8.738;2023-02-25T03:31:55;1.50;;;1.23;;
28545;SDS011;15749;49.606;8.738;2023-02-25T03:34:32;3.70;;;1.80;;
28545;SDS011;15749;49.606;8.738;2023-02-25T03:37:07;1.87;;;1.40;;
28545;SDS011;15749;49.606;8.738;2023-02-25T03:39:42;3.67;;;1.50;;
28545;SDS011;15749;49.606;8.738;2023-02-25T03:42:17;2.10;;;1.40;;
28545;SDS011;15749;49.606;8.738;2023-02-25T03:44:51;1.40;;;1.10;;
28545;SDS011;15749;49.606;8.738;2023-02-25T03:47:25;1.23;;;0.97;;
28545;SDS011;15749;49.606;8.738;2023-02-25T03:49:58;1.63;;;1.27;;
28545;SDS011;15749;49.606;8.738;2023-02-25T03:52:34;1.30;;;1.20;;
28545;SDS011;15749;49.606;8.738;2023-02-25T03:55:11;2.27;;;1.13;;
28545;SDS011;15749;49.606;8.738;2023-02-25T03:57:43;2.93;;;1.30;;
28545;SDS011;15749;49.606;8.738;2023-02-25T04:00:18;1.97;;;1.03;;
28545;SDS011;15749;49.606;8.738;2023-02-25T04:02:53;1.73;;;1.03;;
28545;SDS011;15749;49.606;8.738;2023-02-25T04:05:25;2.93;;;1.43;;
28545;SDS011;15749;49.606;8.738;2023-02-25T04:07:55;3.10;;;1.23;;
28545;SDS011;15749;49.606;8.738;2023-02-25T04:10:30;1.87;;;0.80;;
28545;SDS011;15749;49.606;8.738;2023-02-25T04:13:00;1.50;;;1.10;;
28545;SDS011;15749;49.606;8.738;2023-02-25T04:15:30;2.30;;;1.10;;
28545;SDS011;15749;49.606;8.738;2023-02-25T04:17:59;2.07;;;1.00;;
28545;SDS011;15749;49.606;8.738;2023-02-25T04:20:30;2.40;;;1.10;;
28545;SDS011;15749;49.606;8.738;2023-02-25T04:23:00;2.97;;;1.37;;
28545;SDS011;15749;49.606;8.738;2023-02-25T04:25:30;2.27;;;0.97;;
28545;SDS011;15749;49.606;8.738;2023-02-25T04:28:00;1.57;;;1.00;;
28545;SDS011;15749;49.606;8.738;2023-02-25T04:30:30;2.00;;;0.80;;
28545;SDS011;15749;49.606;8.738;2023-02-25T04:33:00;1.63;;;0.80;;
28545;SDS011;15749;49.606;8.738;2023-02-25T04:35:31;1.70;;;0.90;;
28545;SDS011;15749;49.606;8.738;2023-02-25T04:38:01;1.83;;;1.00;;
28545;SDS011;15749;49.606;8.738;2023-02-25T04:40:30;1.20;;;0.70;;
28545;SDS011;15749;49.606;8.738;2023-02-25T04:43:00;2.13;;;0.90;;
28545;SDS011;15749;49.606;8.738;2023-02-25T04:45:30;1.83;;;0.97;;
28545;SDS011;15749;49.606;8.738;2023-02-25T04:48:00;1.80;;;0.97;;
28545;SDS011;15749;49.606;8.738;2023-02-25T04:50:29;1.40;;;0.80;;
28545;SDS011;15749;49.606;8.738;2023-02-25T04:53:00;1.43;;;0.87;;
28545;SDS011;15749;49.606;8.738;2023-02-25T04:55:30;2.70;;;1.10;;
28545;SDS011;15749;49.606;8.738;2023-02-25T04:57:59;2.07;;;0.90;;
28545;SDS011;15749;49.606;8.738;2023-02-25T05:00:29;2.93;;;1.00;;
28545;SDS011;15749;49.606;8.738;2023-02-25T05:02:58;2.20;;;1.07;;
28545;SDS011;15749;49.606;8.738;2023-02-25T05:05:27;1.83;;;0.83;;
28545;SDS011;15749;49.606;8.738;2023-02-25T05:07:58;2.07;;;1.07;;
28545;SDS011;15749;49.606;8.738;2023-02-25T05:10:28;1.40;;;0.77;;
28545;SDS011;15749;49.606;8.738;2023-02-25T05:12:57;2.40;;;0.90;;
28545;SDS011;15749;49.606;8.738;2023-02-25T05:15:26;2.57;;;0.87;;
28545;SDS011;15749;49.606;8.738;2023-02-25T05:17:56;3.43;;;1.10;;
28545;SDS011;15749;49.606;8.738;2023-02-25T05:20:25;2.57;;;1.10;;
28545;SDS011;15749;49.606;8.738;2023-02-25T05:22:56;2.40;;;0.90;;
28545;SDS011;15749;49.606;8.738;2023-02-25T05:25:27;1.30;;;0.67;;
28545;SDS011;15749;49.606;8.738;2023-02-25T05:27:57;2.67;;;0.80;;
28545;SDS011;15749;49.606;8.738;2023-02-25T05:30:26;0.70;;;0.50;;
28545;SDS011;15749;49.606;8.738;2023-02-25T05:32:55;1.10;;;0.63;;
28545;SDS011;15749;49.606;8.738;2023-02-25T05:35:25;2.33;;;0.80;;
28545;SDS011;15749;49.606;8.738;2023-02-25T05:37:54;4.27;;;1.00;;
28545;SDS011;15749;49.606;8.738;2023-02-25T05:40:25;1.50;;;0.77;;
28545;SDS011;15749;49.606;8.738;2023-02-25T05:42:55;2.10;;;1.00;;
28545;SDS011;15749;49.606;8.738;2023-02-25T05:45:24;2.10;;;1.47;;
28545;SDS011;15749;49.606;8.738;2023-02-25T05:47:54;3.20;;;1.30;;
28545;SDS011;15749;49.606;8.738;2023-02-25T05:50:23;3.33;;;1.70;;
28545;SDS011;15749;49.606;8.738;2023-02-25T05:52:54;2.77;;;1.33;;
28545;SDS011;15749;49.606;8.738;2023-02-25T05:55:25;2.37;;;1.53;;
28545;SDS011;15749;49.606;8.738;2023-02-25T05:57:55;2.20;;;1.10;;
28545;SDS011;15749;49.606;8.738;2023-02-25T06:00:24;4.30;;;1.00;;
28545;SDS011;15749;49.606;8.738;2023-02-25T06:02:54;2.50;;;1.10;;
28545;SDS011;15749;49.606;8.738;2023-02-25T06:05:23;1.37;;;0.90;;
28545;SDS011;15749;49.606;8.738;2023-02-25T06:07:53;0.97;;;0.70;;
28545;SDS011;15749;49.606;8.738;2023-02-25T06:10:22;1.60;;;0.87;;
28545;SDS011;15749;49.606;8.738;2023-02-25T06:12:53;1.40;;;0.70;;
28545;SDS011;15749;49.606;8.738;2023-02-25T06:15:22;1.93;;;0.80;;
28545;SDS011;15749;49.606;8.738;2023-02-25T06:17:52;2.13;;;0.87;;
28545;SDS011;15749;49.606;8.738;2023-02-25T06:20:21;2.53;;;0.97;;
28545;SDS011;15749;49.606;8.738;2023-02-25T06:22:54;1.97;;;1.00;;
28545;SDS011;15749;49.606;8.738;2023-02-25T06:25:23;3.43;;;1.07;;
28545;SDS011;15749;49.606;8.738;2023-02-25T06:27:57;3.50;;;1.53;;
28545;SDS011;15749;49.606;8.738;2023-02-25T06:30:28;1.93;;;1.10;;
28545;SDS011;15749;49.606;8.738;2023-02-25T06:32:58;3.80;;;1.27;;
28545;SDS011;15749;49.606;8.738;2023-02-25T06:35:28;2.57;;;1.10;;
28545;SDS011;15749;49.606;8.738;2023-02-25T06:37:58;2.93;;;1.20;;
28545;SDS011;15749;49.606;8.738;2023-02-25T06:40:28;2.20;;;0.87;;
28545;SDS011;15749;49.606;8.738;2023-02-25T06:46:18;4.27;;;1.60;;
28545;SDS011;15749;49.606;8.738;2023-02-25T06:48:51;3.77;;;1.70;;
28545;SDS011;15749;49.606;8.738;2023-02-25T06:51:22;3.27;;;1.27;;
28545;SDS011;15749;49.606;8.738;2023-02-25T06:53:51;3.43;;;1.50;;
28545;SDS011;15749;49.606;8.738;2023-02-25T06:56:21;2.27;;;1.30;;
28545;SDS011;15749;49.606;8.738;2023-02-25T06:58:54;2.23;;;1.30;;
28545;SDS011;15749;49.606;8.738;2023-02-25T07:01:25;2.47;;;1.40;;
28545;SDS011;15749;49.606;8.738;2023-02-25T07:03:55;2.10;;;1.20;;
28545;SDS011;15749;49.606;8.738;2023-02-25T07:06:24;3.57;;;1.30;;
28545;SDS011;15749;49.606;8.738;2023-02-25T07:08:54;5.27;;;1.63;;
28545;SDS011;15749;49.606;8.738;2023-02-25T07:11:28;3.60;;;1.40;;
28545;SDS011;15749;49.606;8.738;2023-02-25T07:14:04;2.83;;;1.33;;
28545;SDS011;15749;49.606;8.738;2023-02-25T07:16:34;5.47;;;1.57;;
28545;SDS011;15749;49.606;8.738;2023-02-25T07:19:03;3.70;;;1.60;;
28545;SDS011;15749;49.606;8.738;2023-02-25T07:21:33;4.83;;;1.87;;
28545;SDS011;15749;49.606;8.738;2023-02-25T07:24:04;3.70;;;1.47;;
28545;SDS011;15749;49.606;8.738;2023-02-25T07:26:34;3.53;;;1.60;;
28545;SDS011;15749;49.606;8.738;2023-02-25T07:29:05;4.00;;;1.80;;
28545;SDS011;15749;49.606;8.738;2023-02-25T07:31:35;5.50;;;1.67;;
28545;SDS011;15749;49.606;8.738;2023-02-25T07:34:05;3.80;;;1.50;;
28545;SDS011;15749;49.606;8.738;2023-02-25T07:36:34;6.30;;;1.63;;
28545;SDS011;15749;49.606;8.738;2023-02-25T07:39:04;5.47;;;2.00;;
28545;SDS011;15749;49.606;8.738;2023-02-25T07:41:35;3.27;;;1.30;;
28545;SDS011;15749;49.606;8.738;2023-02-25T07:44:06;4.60;;;1.60;;
28545;SDS011;15749;49.606;8.738;2023-02-25T07:46:36;7.00;;;1.83;;
28545;SDS011;15749;49.606;8.738;2023-02-25T07:49:06;2.77;;;1.30;;
28545;SDS011;15749;49.606;8.738;2023-02-25T07:51:35;3.20;;;1.40;;
28545;SDS011;15749;49.606;8.738;2023-02-25T07:54:05;5.00;;;1.60;;
28545;SDS011;15749;49.606;8.738;2023-02-25T07:56:34;2.97;;;1.53;;
28545;SDS011;15749;49.606;8.738;2023-02-25T07:59:04;2.37;;;1.20;;
28545;SDS011;15749;49.606;8.738;2023-02-25T08:01:34;3.73;;;1.30;;
28545;SDS011;15749;49.606;8.738;2023-02-25T08:04:05;4.60;;;1.73;;
28545;SDS011;15749;49.606;8.738;2023-02-25T08:06:37;3.80;;;1.70;;
28545;SDS011;15749;49.606;8.738;2023-02-25T08:09:08;2.63;;;1.30;;
28545;SDS011;15749;49.606;8.738;2023-02-25T08:11:39;3.43;;;1.40;;
28545;SDS011;15749;49.606;8.738;2023-02-25T08:14:10;4.47;;;1.50;;
28545;SDS011;15749;49.606;8.738;2023-02-25T08:16:41;2.63;;;1.20;;
28545;SDS011;15749;49.606;8.738;2023-02-25T08:19:10;2.97;;;1.53;;
28545;SDS011;15749;49.606;8.738;2023-02-25T08:21:39;4.40;;;1.57;;
28545;SDS011;15749;49.606;8.738;2023-02-25T08:24:09;4.47;;;1.40;;
28545;SDS011;15749;49.606;8.738;2023-02-25T08:26:38;3.67;;;1.30;;
28545;SDS011;15749;49.606;8.738;2023-02-25T08:29:08;5.37;;;1.83;;
28545;SDS011;15749;49.606;8.738;2023-02-25T08:31:37;3.50;;;1.50;;
28545;SDS011;15749;49.606;8.738;2023-02-25T08:34:08;2.63;;;1.40;;
28545;SDS011;15749;49.606;8.738;2023-02-25T08:36:38;3.10;;;1.43;;
28545;SDS011;15749;49.606;8.738;2023-02-25T08:39:08;3.47;;;0.90;;
28545;SDS011;15749;49.606;8.738;2023-02-25T08:41:38;3.17;;;1.33;;
28545;SDS011;15749;49.606;8.738;2023-02-25T08:44:09;3.33;;;1.30;;
28545;SDS011;15749;49.606;8.738;2023-02-25T08:46:39;4.57;;;1.53;;
28545;SDS011;15749;49.606;8.738;2023-02-25T08:49:10;2.97;;;1.37;;
28545;SDS011;15749;49.606;8.738;2023-02-25T08:51:40;2.20;;;1.10;;
28545;SDS011;15749;49.606;8.738;2023-02-25T08:54:11;3.20;;;1.57;;
28545;SDS011;15749;49.606;8.738;2023-02-25T08:56:41;1.37;;;1.10;;
28545;SDS011;15749;49.606;8.738;2023-02-25T08:59:12;1.80;;;1.20;;
28545;SDS011;15749;49.606;8.738;2023-02-25T09:01:43;2.97;;;1.30;;
28545;SDS011;15749;49.606;8.738;2023-02-25T09:04:15;3.07;;;1.33;;
28545;SDS011;15749;49.606;8.738;2023-02-25T09:06:51;1.50;;;1.10;;
28545;SDS011;15749;49.606;8.738;2023-02-25T09:09:21;2.97;;;1.30;;
28545;SDS011;15749;49.606;8.738;2023-02-25T09:11:50;3.37;;;1.47;;
28545;SDS011;15749;49.606;8.738;2023-02-25T09:14:21;4.20;;;1.60;;
28545;SDS011;15749;49.606;8.738;2023-02-25T09:16:50;7.43;;;5.77;;
28545;SDS011;15749;49.606;8.738;2023-02-25T09:19:21;5.67;;;3.43;;
28545;SDS011;15749;49.606;8.738;2023-02-25T09:21:51;3.53;;;2.07;;
28545;SDS011;15749;49.606;8.738;2023-02-25T09:24:20;2.57;;;1.73;;
28545;SDS011;15749;49.606;8.738;2023-02-25T09:26:50;2.73;;;1.70;;
28545;SDS011;15749;49.606;8.738;2023-02-25T09:29:19;3.20;;;1.57;;
28545;SDS011;15749;49.606;8.738;2023-02-25T09:31:49;4.10;;;2.00;;
28545;SDS011;15749;49.606;8.738;2023-02-25T09:34:21;2.50;;;1.47;;
28545;SDS011;15749;49.606;8.738;2023-02-25T09:36:51;4.03;;;1.87;;
28545;SDS011;15749;49.606;8.738;2023-02-25T09:39:20;4.43;;;1.57;;
28545;SDS011;15749;49.606;8.738;2023-02-25T09:41:51;4.63;;;1.80;;
28545;SDS011;15749;49.606;8.738;2023-02-25T09:44:24;1.73;;;1.17;;
28545;SDS011;15749;49.606;8.738;2023-02-25T09:47:00;4.90;;;1.43;;
28545;SDS011;15749;49.606;8.738;2023-02-25T09:49:35;1.73;;;1.40;;
28545;SDS011;15749;49.606;8.738;2023-02-25T09:52:08;6.33;;;2.87;;
28545;SDS011;15749;49.606;8.738;2023-02-25T09:54:45;2.53;;;2.03;;
28545;SDS011;15749;49.606;8.738;2023-02-25T09:57:18;3.00;;;1.60;;
28545;SDS011;15749;49.606;8.738;2023-02-25T09:59:50;3.23;;;1.50;;
28545;SDS011;15749;49.606;8.738;2023-02-25T10:02:29;4.10;;;1.40;;
28545;SDS011;15749;49.606;8.738;2023-02-25T10:05:10;3.27;;;1.50;;
28545;SDS011;15749;49.606;8.738;2023-02-25T10:07:51;4.00;;;1.43;;
28545;SDS011;15749;49.606;8.738;2023-02-25T10:10:32;3.47;;;1.93;;
28545;SDS011;15749;49.606;8.738;2023-02-25T10:13:16;3.00;;;1.43;;
28545;SDS011;15749;49.606;8.738;2023-02-25T10:15:59;5.93;;;3.70;;
28545;SDS011;15749;49.606;8.738;2023-02-25T10:18:48;4.63;;;2.87;;
28545;SDS011;15749;49.606;8.738;2023-02-25T10:21:36;3.70;;;1.87;;
28545;SDS011;15749;49.606;8.738;2023-02-25T10:24:27;3.73;;;1.57;;
28545;SDS011;15749;49.606;8.738;2023-02-25T10:27:04;2.73;;;1.80;;
28545;SDS011;15749;49.606;8.738;2023-02-25T10:29:47;4.60;;;2.00;;
28545;SDS011;15749;49.606;8.738;2023-02-25T10:32:21;2.50;;;1.70;;
28545;SDS011;15749;49.606;8.738;2023-02-25T10:34:54;2.70;;;1.43;;
28545;SDS011;15749;49.606;8.738;2023-02-25T10:37:30;3.57;;;1.37;;
28545;SDS011;15749;49.606;8.738;2023-02-25T10:40:02;2.03;;;1.40;;
28545;SDS011;15749;49.606;8.738;2023-02-25T10:42:37;2.50;;;1.50;;
28545;SDS011;15749;49.606;8.738;2023-02-25T10:45:07;8.93;;;6.23;;
28545;SDS011;15749;49.606;8.738;2023-02-25T10:47:42;11.43;;;8.00;;
28545;SDS011;15749;49.606;8.738;2023-02-25T10:50:18;5.57;;;4.27;;
28545;SDS011;15749;49.606;8.738;2023-02-25T10:53:13;3.37;;;2.67;;
28545;SDS011;15749;49.606;8.738;2023-02-25T10:55:46;3.83;;;3.00;;
28545;SDS011;15749;49.606;8.738;2023-02-25T10:58:20;5.30;;;2.80;;
28545;SDS011;15749;49.606;8.738;2023-02-25T11:01:08;2.40;;;1.80;;
28545;SDS011;15749;49.606;8.738;2023-02-25T11:03:45;3.03;;;2.10;;
28545;SDS011;15749;49.606;8.738;2023-02-25T11:06:25;2.97;;;1.90;;
28545;SDS011;15749;49.606;8.738;2023-02-25T11:09:00;3.90;;;2.13;;
28545;SDS011;15749;49.606;8.738;2023-02-25T11:11:34;5.80;;;1.93;;
28545;SDS011;15749;49.606;8.738;2023-02-25T11:14:05;2.53;;;1.83;;
28545;SDS011;15749;49.606;8.738;2023-02-25T11:16:43;4.60;;;1.90;;
28545;SDS011;15749;49.606;8.738;2023-02-25T11:19:14;4.67;;;1.90;;
28545;SDS011;15749;49.606;8.738;2023-02-25T11:21:49;3.00;;;1.70;;
28545;SDS011;15749;49.606;8.738;2023-02-25T11:24:23;2.53;;;1.57;;
28545;SDS011;15749;49.606;8.738;2023-02-25T11:26:59;2.00;;;1.17;;
28545;SDS011;15749;49.606;8.738;2023-02-25T11:29:32;2.30;;;1.40;;
28545;SDS011;15749;49.606;8.738;2023-02-25T11:32:09;1.70;;;1.00;;
28545;SDS011;15749;49.606;8.738;2023-02-25T11:34:43;2.53;;;1.30;;
28545;SDS011;15749;49.606;8.738;2023-02-25T11:37:24;2.83;;;1.00;;
28545;SDS011;15749;49.606;8.738;2023-02-25T11:40:12;3.03;;;1.37;;
28545;SDS011;15749;49.606;8.738;2023-02-25T11:45:46;2.53;;;1.07;;
28545;SDS011;15749;49.606;8.738;2023-02-25T11:48:20;6.03;;;3.47;;
28545;SDS011;15749;49.606;8.738;2023-02-25T11:50:56;8.90;;;5.43;;
28545;SDS011;15749;49.606;8.738;2023-02-25T11:53:36;8.30;;;4.27;;
28545;SDS011;15749;49.606;8.738;2023-02-25T11:56:36;3.57;;;2.50;;
28545;SDS011;15749;49.606;8.738;2023-02-25T11:59:13;3.90;;;2.00;;
28545;SDS011;15749;49.606;8.738;2023-02-25T12:02:01;10.30;;;1.67;;
28545;SDS011;15749;49.606;8.738;2023-02-25T12:14:47;2.73;;;1.10;;
28545;SDS011;15749;49.606;8.738;2023-02-25T12:17:50;2.77;;;1.30;;
28545;SDS011;15749;49.606;8.738;2023-02-25T12:21:09;4.50;;;2.20;;
28545;SDS011;15749;49.606;8.738;2023-02-25T12:31:25;3.73;;;1.50;;
28545;SDS011;15749;49.606;8.738;2023-02-25T12:37:38;3.73;;;1.73;;
28545;SDS011;15749;49.606;8.738;2023-02-25T12:40:29;3.70;;;1.50;;
28545;SDS011;15749;49.606;8.738;2023-02-25T12:43:14;1.80;;;1.10;;
28545;SDS011;15749;49.606;8.738;2023-02-25T12:48:59;2.63;;;1.27;;
28545;SDS011;15749;49.606;8.738;2023-02-25T12:52:01;1.60;;;1.13;;
28545;SDS011;15749;49.606;8.738;2023-02-25T12:54:54;4.10;;;1.20;;
28545;SDS011;15749;49.606;8.738;2023-02-25T12:58:18;3.03;;;1.10;;
28545;SDS011;15749;49.606;8.738;2023-02-25T13:07:40;3.60;;;1.63;;
28545;SDS011;15749;49.606;8.738;2023-02-25T13:10:53;3.30;;;1.60;;
28545;SDS011;15749;49.606;8.738;2023-02-25T13:13:42;2.43;;;1.47;;
28545;SDS011;15749;49.606;8.738;2023-02-25T13:16:34;2.23;;;1.23;;
28545;SDS011;15749;49.606;8.738;2023-02-25T13:19:33;2.30;;;1.20;;
28545;SDS011;15749;49.606;8.738;2023-02-25T13:22:50;3.07;;;1.00;;
28545;SDS011;15749;49.606;8.738;2023-02-25T13:25:44;1.40;;;0.97;;
28545;SDS011;15749;49.606;8.738;2023-02-25T13:28:34;3.77;;;1.17;;
28545;SDS011;15749;49.606;8.738;2023-02-25T13:31:23;2.00;;;1.17;;
28545;SDS011;15749;49.606;8.738;2023-02-25T13:34:07;2.43;;;1.87;;
28545;SDS011;15749;49.606;8.738;2023-02-25T13:36:59;2.10;;;1.20;;
28545;SDS011;15749;49.606;8.738;2023-02-25T13:42:57;1.60;;;1.23;;
28545;SDS011;15749;49.606;8.738;2023-02-25T13:45:53;2.47;;;2.00;;
28545;SDS011;15749;49.606;8.738;2023-02-25T13:48:41;6.03;;;3.97;;
28545;SDS011;15749;49.606;8.738;2023-02-25T13:51:32;3.53;;;2.33;;
28545;SDS011;15749;49.606;8.738;2023-02-25T13:54:39;6.37;;;4.57;;
28545;SDS011;15749;49.606;8.738;2023-02-25T13:57:50;7.63;;;5.70;;
28545;SDS011;15749;49.606;8.738;2023-02-25T14:10:15;4.33;;;2.87;;
28545;SDS011;15749;49.606;8.738;2023-02-25T14:13:08;10.07;;;5.93;;
28545;SDS011;15749;49.606;8.738;2023-02-25T14:15:53;5.20;;;3.60;;
28545;SDS011;15749;49.606;8.738;2023-02-25T14:21:57;3.10;;;1.97;;
28545;SDS011;15749;49.606;8.738;2023-02-25T14:24:49;2.40;;;1.70;;
28545;SDS011;15749;49.606;8.738;2023-02-25T14:27:34;3.83;;;2.23;;
28545;SDS011;15749;49.606;8.738;2023-02-25T14:30:16;5.90;;;3.43;;
28545;SDS011;15749;49.606;8.738;2023-02-25T14:32:57;4.73;;;2.53;;
28545;SDS011;15749;49.606;8.738;2023-02-25T14:38:59;15.90;;;8.00;;
28545;SDS011;15749;49.606;8.738;2023-02-25T14:41:51;6.20;;;4.00;;
28545;SDS011;15749;49.606;8.738;2023-02-25T14:44:32;3.40;;;2.30;;
28545;SDS011;15749;49.606;8.738;2023-02-25T14:47:11;3.17;;;1.70;;
28545;SDS011;15749;49.606;8.738;2023-02-25T14:49:51;1.67;;;1.07;;
28545;SDS011;15749;49.606;8.738;2023-02-25T14:52:43;1.13;;;0.80;;
28545;SDS011;15749;49.606;8.738;2023-02-25T14:56:05;0.83;;;0.70;;
28545;SDS011;15749;49.606;8.738;2023-02-25T15:02:41;2.90;;;2.57;;
28545;SDS011;15749;49.606;8.738;2023-02-25T15:05:33;2.13;;;1.87;;
28545;SDS011;15749;49.606;8.738;2023-02-25T15:08:34;1.57;;;1.47;;
28545;SDS011;15749;49.606;8.738;2023-02-25T15:11:34;1.30;;;1.20;;
28545;SDS011;15749;49.606;8.738;2023-02-25T15:17:28;1.30;;;0.97;;
28545;SDS011;15749;49.606;8.738;2023-02-25T15:20:39;1.40;;;1.30;;
28545;SDS011;15749;49.606;8.738;2023-02-25T15:23:10;1.57;;;1.43;;
28545;SDS011;15749;49.606;8.738;2023-02-25T15:25:43;2.03;;;1.70;;
28545;SDS011;15749;49.606;8.738;2023-02-25T15:28:36;2.97;;;2.47;;
28545;SDS011;15749;49.606;8.738;2023-02-25T15:40:12;1.40;;;0.63;;
28545;SDS011;15749;49.606;8.738;2023-02-25T15:46:36;0.60;;;0.47;;
28545;SDS011;15749;49.606;8.738;2023-02-25T15:49:20;1.43;;;0.80;;
28545;SDS011;15749;49.606;8.738;2023-02-25T15:52:00;0.93;;;0.50;;
28545;SDS011;15749;49.606;8.738;2023-02-25T15:54:45;1.03;;;0.60;;
28545;SDS011;15749;49.606;8.738;2023-02-25T15:57:33;0.53;;;0.50;;
28545;SDS011;15749;49.606;8.738;2023-02-25T16:06:16;0.93;;;0.67;;
28545;SDS011;15749;49.606;8.738;2023-02-25T16:08:51;2.00;;;1.80;;
28545;SDS011;15749;49.606;8.738;2023-02-25T16:11:31;1.83;;;1.50;;
28545;SDS011;15749;49.606;8.738;2023-02-25T16:14:06;2.63;;;2.43;;
28545;SDS011;15749;49.606;8.738;2023-02-25T16:16:43;1.63;;;1.53;;
28545;SDS011;15749;49.606;8.738;2023-02-25T16:19:18;1.93;;;1.03;;
28545;SDS011;15749;49.606;8.738;2023-02-25T16:21:50;1.33;;;1.23;;
28545;SDS011;15749;49.606;8.738;2023-02-25T16:24:27;1.83;;;1.50;;
28545;SDS011;15749;49.606;8.738;2023-02-25T16:27:00;1.80;;;1.37;;
28545;SDS011;15749;49.606;8.738;2023-02-25T16:29:48;5.40;;;4.40;;
28545;SDS011;15749;49.606;8.738;2023-02-25T16:32:30;4.90;;;3.87;;
28545;SDS011;15749;49.606;8.738;2023-02-25T16:35:08;3.30;;;3.00;;
28545;SDS011;15749;49.606;8.738;2023-02-25T16:37:44;2.67;;;2.33;;
28545;SDS011;15749;49.606;8.738;2023-02-25T16:40:28;1.70;;;1.60;;
28545;SDS011;15749;49.606;8.738;2023-02-25T16:43:03;1.53;;;1.40;;
28545;SDS011;15749;49.606;8.738;2023-02-25T16:45:34;1.60;;;1.50;;
28545;SDS011;15749;49.606;8.738;2023-02-25T16:48:13;1.27;;;1.17;;
28545;SDS011;15749;49.606;8.738;2023-02-25T16:50:46;1.33;;;1.07;;
28545;SDS011;15749;49.606;8.738;2023-02-25T16:53:18;1.43;;;1.00;;
28545;SDS011;15749;49.606;8.738;2023-02-25T16:55:57;1.10;;;0.97;;
28545;SDS011;15749;49.606;8.738;2023-02-25T16:58:28;1.20;;;0.80;;
28545;SDS011;15749;49.606;8.738;2023-02-25T17:00:59;1.43;;;1.03;;
28545;SDS011;15749;49.606;8.738;2023-02-25T17:03:39;1.27;;;1.17;;
28545;SDS011;15749;49.606;8.738;2023-02-25T17:06:16;0.77;;;0.70;;
28545;SDS011;15749;49.606;8.738;2023-02-25T17:08:48;1.10;;;0.97;;